GMMEGMMH

Guest
Details From GMME - SALE
To GMMH - DAKHLA
Flight Number -
Tags decoded
Created
Modified
Stats Distance 791 nm / 1,465 km
Max Altitude 0 ft / 0 m
Waypoints 5
Social Downloads 1
Likes 0
Share VATSIM

Download

Looking for another format? Having issues loading an existing format? Contact us
Advertisement - Login to hide

Notes

Requested: GMME BSM4D BISMI UB11 MABAP UN869 ADM UA600 DKH GMMH Unmatched points: BSM4D UB11 MABAP UN869 UA600

Route

GMME BISMI ADM DKH GMMH

ID Type Via Altitude Latitude Longitude Leg Dist Tot Dist Heading (true) Name
O GMME APT - 0 ft / 0 m 34.05147˚ -6.75152˚ - 0 nm - SALE
BISMI FIX - 0 ft / 0 m 33.64721˚ -6.89351˚ 25 nm 25 nm 196° / 196° -
ADM VOR - 0 ft / 0 m 30.32194˚ -9.38333˚ 236 nm 261 nm 213° / 212° AGADIR VOR-DME
DKH VOR - 0 ft / 0 m 23.73977˚ -15.92632˚ 527 nm 789 nm 223° / 220° DAKHLA VOR-DME
O GMMH APT - 0 ft / 0 m 23.71829˚ -15.93199˚ 1 nm 790 nm 194° / 194° DAKHLA

Altitude Profile

Advertisement - Login to hide

Weather


0- 5 10 15 20 25 30 35+ Temperature / ° C

Clouds and Precipitation
Forecast for 2018-05-23 06:00 UTC. Updated 13 minutes ago

Ground ~20,000 ft ~40,000 ft Winds

GMME

Details ICAO GMME (RBA)
Name SALE
Region Morocco
Timezone Africa/Casablanca (UTC+0.0)
Stats Elevation 276 ft / 84 m (AMSL)
Location 34.051468° -6.751519°
Runways 1
Magnetic Variation 1.501° W

METAR

GMME 230330Z 00000KT 9999 BKN016 17/14 Q1014 NOSIG

Decode

TAF

TAF GMME 222300Z 2300/2406 32008KT 8000 SCT013 BKN020 PROB30 TEMPO 2300/2306 RA BKN015 TEMPO 2318/2324 22012KT 6000 TSRA SCT015TCU BKN020 SCT023CB

Decode

Departure Runways

ID Width Length Bearing (true) Bearing (mag) Surface Threshold Offset Overrun Length
04 148 ft / 45 m 11,503 ft / 3,506 m 31.24° 32.74° Asphalt 0 ft / 0 m 197 ft / 60 m
22 148 ft / 45 m 11,503 ft / 3,506 m 211.25° 212.75° Asphalt 0 ft / 0 m 197 ft / 60 m

GMMH

Details ICAO GMMH (VIL)
Name DAKHLA
Region Morocco
Timezone Africa/El_Aaiun (UTC+0.0)
Stats Elevation 36 ft / 11 m (AMSL)
Location 23.718294° -15.931993°
Runways 1
Magnetic Variation 5.218° W

METAR

Not found

TAF

TAF GMMH 222300Z 2300/2406 02014KT 8000 NSC

Decode

Destination Runways

ID Width Length Bearing (true) Bearing (mag) Surface Threshold Offset Overrun Length
03 148 ft / 45 m 9,886 ft / 3,013 m 22.66° 27.88° Asphalt 0 ft / 0 m 323 ft / 98 m
21 148 ft / 45 m 9,886 ft / 3,013 m 202.67° 207.89° Asphalt 0 ft / 0 m 377 ft / 115 m

Popular Alternatives